sensor_id;sensor_type;location;lat;lon;timestamp;pressure;altitude;pressure_sealevel;temperature;humidity
17505;BME280;8870;50.950;11.762;2022-09-19T00:02:10;97703.94;;;7.75;100.00
17505;BME280;8870;50.950;11.762;2022-09-19T00:07:15;97710.31;;;7.74;100.00
17505;BME280;8870;50.950;11.762;2022-09-19T00:12:22;97709.13;;;7.68;100.00
17505;BME280;8870;50.950;11.762;2022-09-19T00:17:27;97704.94;;;7.74;100.00
17505;BME280;8870;50.950;11.762;2022-09-19T00:22:31;97703.66;;;7.86;100.00
17505;BME280;8870;50.950;11.762;2022-09-19T00:27:39;97714.41;;;7.94;100.00
17505;BME280;8870;50.950;11.762;2022-09-19T00:32:43;97701.34;;;7.91;100.00
17505;BME280;8870;50.950;11.762;2022-09-19T00:37:48;97718.13;;;7.93;100.00
17505;BME280;8870;50.950;11.762;2022-09-19T00:42:55;97717.94;;;7.95;100.00
17505;BME280;8870;50.950;11.762;2022-09-19T00:48:02;97709.59;;;7.98;100.00
17505;BME280;8870;50.950;11.762;2022-09-19T00:53:09;97726.81;;;7.95;100.00
17505;BME280;8870;50.950;11.762;2022-09-19T00:58:22;97731.53;;;7.93;100.00
17505;BME280;8870;50.950;11.762;2022-09-19T01:03:30;97742.09;;;7.95;100.00
17505;BME280;8870;50.950;11.762;2022-09-19T01:08:54;97747.94;;;7.90;100.00
17505;BME280;8870;50.950;11.762;2022-09-19T01:14:15;97736.53;;;7.88;100.00
17505;BME280;8870;50.950;11.762;2022-09-19T01:25:11;97751.25;;;7.84;100.00
17505;BME280;8870;50.950;11.762;2022-09-19T01:30:20;97770.19;;;7.82;100.00
17505;BME280;8870;50.950;11.762;2022-09-19T01:35:28;97766.31;;;7.77;100.00
17505;BME280;8870;50.950;11.762;2022-09-19T01:40:37;97779.03;;;7.75;100.00
17505;BME280;8870;50.950;11.762;2022-09-19T01:45:47;97783.69;;;7.72;100.00
17505;BME280;8870;50.950;11.762;2022-09-19T01:51:11;97810.69;;;7.71;100.00
17505;BME280;8870;50.950;11.762;2022-09-19T01:56:29;97796.59;;;7.69;100.00
17505;BME280;8870;50.950;11.762;2022-09-19T02:01:48;97805.50;;;7.69;100.00
17505;BME280;8870;50.950;11.762;2022-09-19T02:07:00;97820.88;;;7.67;100.00
17505;BME280;8870;50.950;11.762;2022-09-19T02:12:09;97829.94;;;7.66;100.00
17505;BME280;8870;50.950;11.762;2022-09-19T02:17:20;97831.75;;;7.66;100.00
17505;BME280;8870;50.950;11.762;2022-09-19T02:22:32;97844.31;;;7.65;100.00
17505;BME280;8870;50.950;11.762;2022-09-19T02:27:42;97859.41;;;7.66;100.00
17505;BME280;8870;50.950;11.762;2022-09-19T02:32:56;97860.09;;;7.68;100.00
17505;BME280;8870;50.950;11.762;2022-09-19T02:38:04;97866.69;;;7.74;100.00
17505;BME280;8870;50.950;11.762;2022-09-19T02:43:18;97859.16;;;7.78;100.00
17505;BME280;8870;50.950;11.762;2022-09-19T02:48:31;97872.91;;;7.83;100.00
17505;BME280;8870;50.950;11.762;2022-09-19T02:53:42;97884.03;;;7.88;100.00
17505;BME280;8870;50.950;11.762;2022-09-19T02:58:54;97879.34;;;7.90;100.00
17505;BME280;8870;50.950;11.762;2022-09-19T03:04:19;97894.13;;;7.94;100.00
17505;BME280;8870;50.950;11.762;2022-09-19T03:09:31;97897.19;;;7.99;100.00
17505;BME280;8870;50.950;11.762;2022-09-19T03:14:41;97892.50;;;8.01;100.00
17505;BME280;8870;50.950;11.762;2022-09-19T03:19:53;97898.69;;;8.02;100.00
17505;BME280;8870;50.950;11.762;2022-09-19T03:25:00;97908.44;;;8.03;100.00
17505;BME280;8870;50.950;11.762;2022-09-19T03:30:08;97921.84;;;8.03;100.00
17505;BME280;8870;50.950;11.762;2022-09-19T03:35:20;97924.69;;;8.01;100.00
17505;BME280;8870;50.950;11.762;2022-09-19T03:40:27;97939.09;;;8.00;100.00
17505;BME280;8870;50.950;11.762;2022-09-19T03:45:33;97950.81;;;7.99;100.00
17505;BME280;8870;50.950;11.762;2022-09-19T03:50:42;97966.22;;;7.97;100.00
17505;BME280;8870;50.950;11.762;2022-09-19T03:55:53;97977.94;;;7.96;100.00
17505;BME280;8870;50.950;11.762;2022-09-19T04:01:07;97991.22;;;7.98;100.00
17505;BME280;8870;50.950;11.762;2022-09-19T04:06:17;97988.53;;;7.98;100.00
17505;BME280;8870;50.950;11.762;2022-09-19T04:11:27;97997.13;;;8.01;100.00
17505;BME280;8870;50.950;11.762;2022-09-19T04:16:42;98001.16;;;8.06;100.00
17505;BME280;8870;50.950;11.762;2022-09-19T04:22:12;98004.53;;;8.08;100.00
17505;BME280;8870;50.950;11.762;2022-09-19T04:27:40;98008.75;;;8.10;100.00
17505;BME280;8870;50.950;11.762;2022-09-19T04:32:47;98019.34;;;8.12;100.00
17505;BME280;8870;50.950;11.762;2022-09-19T04:37:56;98023.69;;;8.13;100.00
17505;BME280;8870;50.950;11.762;2022-09-19T04:43:02;98038.94;;;8.12;100.00
17505;BME280;8870;50.950;11.762;2022-09-19T04:48:07;98040.50;;;8.15;100.00
17505;BME280;8870;50.950;11.762;2022-09-19T04:53:17;98056.44;;;8.16;100.00
17505;BME280;8870;50.950;11.762;2022-09-19T04:58:29;98069.69;;;8.18;100.00
17505;BME280;8870;50.950;11.762;2022-09-19T05:03:35;98073.91;;;8.21;100.00
17505;BME280;8870;50.950;11.762;2022-09-19T05:08:44;98088.16;;;8.21;100.00
17505;BME280;8870;50.950;11.762;2022-09-19T05:13:58;98104.97;;;8.23;100.00
17505;BME280;8870;50.950;11.762;2022-09-19T05:19:06;98111.03;;;8.25;100.00
17505;BME280;8870;50.950;11.762;2022-09-19T05:24:15;98121.59;;;8.27;100.00
17505;BME280;8870;50.950;11.762;2022-09-19T05:29:21;98127.47;;;8.30;100.00
17505;BME280;8870;50.950;11.762;2022-09-19T05:34:36;98125.50;;;8.32;100.00
17505;BME280;8870;50.950;11.762;2022-09-19T05:39:48;98139.63;;;8.35;100.00
17505;BME280;8870;50.950;11.762;2022-09-19T05:45:15;98150.88;;;8.38;100.00
17505;BME280;8870;50.950;11.762;2022-09-19T05:50:23;98147.38;;;8.38;100.00
17505;BME280;8870;50.950;11.762;2022-09-19T05:55:31;98149.19;;;8.37;100.00
17505;BME280;8870;50.950;11.762;2022-09-19T06:00:57;98155.41;;;8.38;100.00
17505;BME280;8870;50.950;11.762;2022-09-19T06:06:06;98176.03;;;8.37;100.00
17505;BME280;8870;50.950;11.762;2022-09-19T06:11:17;98168.84;;;8.38;100.00
17505;BME280;8870;50.950;11.762;2022-09-19T06:16:23;98182.56;;;8.35;100.00
17505;BME280;8870;50.950;11.762;2022-09-19T06:21:46;98185.06;;;8.36;100.00
17505;BME280;8870;50.950;11.762;2022-09-19T06:26:55;98201.03;;;8.38;100.00
17505;BME280;8870;50.950;11.762;2022-09-19T06:32:01;98197.03;;;8.42;100.00
17505;BME280;8870;50.950;11.762;2022-09-19T06:37:12;98206.78;;;8.43;100.00
17505;BME280;8870;50.950;11.762;2022-09-19T06:42:21;98204.66;;;8.46;100.00
17505;BME280;8870;50.950;11.762;2022-09-19T06:47:50;98220.00;;;8.54;100.00
17505;BME280;8870;50.950;11.762;2022-09-19T06:53:31;98219.41;;;8.60;100.00
17505;BME280;8870;50.950;11.762;2022-09-19T06:58:42;98222.63;;;8.64;100.00
17505;BME280;8870;50.950;11.762;2022-09-19T07:03:47;98237.28;;;8.70;100.00
17505;BME280;8870;50.950;11.762;2022-09-19T07:08:59;98243.72;;;8.77;100.00
17505;BME280;8870;50.950;11.762;2022-09-19T07:14:06;98228.00;;;8.82;100.00
17505;BME280;8870;50.950;11.762;2022-09-19T16:37:37;98342.16;;;11.63;100.00
17505;BME280;8870;50.950;11.762;2022-09-19T16:42:43;98337.94;;;11.61;100.00
17505;BME280;8870;50.950;11.762;2022-09-19T16:47:48;98350.59;;;11.60;100.00
17505;BME280;8870;50.950;11.762;2022-09-19T16:52:57;98355.34;;;11.58;100.00
17505;BME280;8870;50.950;11.762;2022-09-19T16:58:09;98372.84;;;11.54;100.00
17505;BME280;8870;50.950;11.762;2022-09-19T17:03:15;98386.03;;;11.57;100.00
17505;BME280;8870;50.950;11.762;2022-09-19T17:08:24;98385.66;;;11.52;100.00
17505;BME280;8870;50.950;11.762;2022-09-19T17:13:29;98391.56;;;11.47;100.00
17505;BME280;8870;50.950;11.762;2022-09-19T17:18:34;98409.78;;;11.45;100.00
17505;BME280;8870;50.950;11.762;2022-09-19T17:23:44;98424.09;;;11.21;100.00
17505;BME280;8870;50.950;11.762;2022-09-19T17:28:49;98417.31;;;11.08;100.00
17505;BME280;8870;50.950;11.762;2022-09-19T17:33:56;98423.31;;;10.94;100.00
17505;BME280;8870;50.950;11.762;2022-09-19T17:39:04;98422.25;;;10.78;100.00
17505;BME280;8870;50.950;11.762;2022-09-19T17:44:09;98431.59;;;10.58;100.00
17505;BME280;8870;50.950;11.762;2022-09-19T17:49:14;98430.28;;;10.36;100.00
17505;BME280;8870;50.950;11.762;2022-09-19T17:54:22;98424.16;;;10.25;100.00
17505;BME280;8870;50.950;11.762;2022-09-19T17:59:34;98431.81;;;10.12;100.00
